Terminal Aerodrome Forecast
Issued by NWS

Home | Current Version | Previous Version | Text Only | Print | Product List | Glossary On
Versions: 1 2 3 4 5 6 7 8 9 10 11 12 13 14 15 16 17 18 19 20 21 22 23 24 25 26 27
000
FTUS41 KOKX 051835 AAA
TAFTEB
TAF AMD
KTEB 051835Z 0519/0618 22005KT P6SM SCT040
     FM052100 17009KT P6SM SCT040
     FM060000 21004KT P6SM FEW060
     FM060700 VRB02KT 6SM BR SCT006 SCT250
      TEMPO 0609/0612 5SM BR
     FM061400 17005KT P6SM SCT040 BKN250=

USA.gov is the U.S. government's official web portal to all federal, state and local government web resources and services.